sensor_id;sensor_type;location;lat;lon;timestamp;P1;durP1;ratioP1;P2;durP2;ratioP2
44456;SDS011;30159;49.316;8.558;2023-05-15T00:00:57;1.90;;;1.80;;
44456;SDS011;30159;49.316;8.558;2023-05-15T00:03:24;2.60;;;2.10;;
44456;SDS011;30159;49.316;8.558;2023-05-15T00:05:50;2.43;;;2.10;;
44456;SDS011;30159;49.316;8.558;2023-05-15T00:08:17;5.90;;;3.27;;
44456;SDS011;30159;49.316;8.558;2023-05-15T00:10:44;4.53;;;4.20;;
44456;SDS011;30159;49.316;8.558;2023-05-15T00:13:10;3.40;;;2.90;;
44456;SDS011;30159;49.316;8.558;2023-05-15T00:15:38;4.60;;;3.07;;
44456;SDS011;30159;49.316;8.558;2023-05-15T00:18:05;3.80;;;3.50;;
44456;SDS011;30159;49.316;8.558;2023-05-15T00:20:31;3.53;;;3.20;;
44456;SDS011;30159;49.316;8.558;2023-05-15T00:22:58;3.20;;;2.90;;
44456;SDS011;30159;49.316;8.558;2023-05-15T00:25:24;2.77;;;2.50;;
44456;SDS011;30159;49.316;8.558;2023-05-15T00:27:51;2.60;;;2.40;;
44456;SDS011;30159;49.316;8.558;2023-05-15T00:30:17;8.73;;;2.90;;
44456;SDS011;30159;49.316;8.558;2023-05-15T00:32:45;2.30;;;2.10;;
44456;SDS011;30159;49.316;8.558;2023-05-15T00:35:12;3.30;;;2.50;;
44456;SDS011;30159;49.316;8.558;2023-05-15T00:37:38;2.47;;;2.27;;
44456;SDS011;30159;49.316;8.558;2023-05-15T00:40:05;10.30;;;2.80;;
44456;SDS011;30159;49.316;8.558;2023-05-15T00:42:34;2.30;;;2.20;;
44456;SDS011;30159;49.316;8.558;2023-05-15T00:45:01;2.50;;;2.30;;
44456;SDS011;30159;49.316;8.558;2023-05-15T00:47:29;3.10;;;2.90;;
44456;SDS011;30159;49.316;8.558;2023-05-15T00:49:58;2.77;;;2.57;;
44456;SDS011;30159;49.316;8.558;2023-05-15T00:52:25;3.40;;;2.90;;
44456;SDS011;30159;49.316;8.558;2023-05-15T00:54:52;3.33;;;3.13;;
44456;SDS011;30159;49.316;8.558;2023-05-15T00:57:18;3.17;;;2.30;;
44456;SDS011;30159;49.316;8.558;2023-05-15T00:59:47;2.50;;;2.30;;
44456;SDS011;30159;49.316;8.558;2023-05-15T01:02:17;3.13;;;2.87;;
44456;SDS011;30159;49.316;8.558;2023-05-15T01:04:44;3.60;;;3.30;;
44456;SDS011;30159;49.316;8.558;2023-05-15T01:07:12;3.20;;;2.97;;
44456;SDS011;30159;49.316;8.558;2023-05-15T01:09:38;3.10;;;2.87;;
44456;SDS011;30159;49.316;8.558;2023-05-15T01:12:08;3.10;;;2.90;;
44456;SDS011;30159;49.316;8.558;2023-05-15T01:14:35;3.43;;;2.90;;
44456;SDS011;30159;49.316;8.558;2023-05-15T01:17:02;2.77;;;2.57;;
44456;SDS011;30159;49.316;8.558;2023-05-15T01:19:28;2.73;;;2.53;;
44456;SDS011;30159;49.316;8.558;2023-05-15T01:22:00;2.70;;;2.50;;
44456;SDS011;30159;49.316;8.558;2023-05-15T01:27:57;3.10;;;2.80;;
44456;SDS011;30159;49.316;8.558;2023-05-15T01:30:28;3.13;;;2.93;;
44456;SDS011;30159;49.316;8.558;2023-05-15T01:33:01;3.33;;;2.57;;
44456;SDS011;30159;49.316;8.558;2023-05-15T01:35:32;3.00;;;2.80;;
44456;SDS011;30159;49.316;8.558;2023-05-15T01:38:16;3.07;;;2.87;;
44456;SDS011;30159;49.316;8.558;2023-05-15T01:40:50;2.43;;;2.23;;
44456;SDS011;30159;49.316;8.558;2023-05-15T01:43:23;3.37;;;3.07;;
44456;SDS011;30159;49.316;8.558;2023-05-15T01:45:53;3.40;;;3.20;;
44456;SDS011;30159;49.316;8.558;2023-05-15T01:48:21;8.70;;;3.33;;
44456;SDS011;30159;49.316;8.558;2023-05-15T01:50:50;3.80;;;3.40;;
44456;SDS011;30159;49.316;8.558;2023-05-15T01:53:20;3.27;;;3.07;;
44456;SDS011;30159;49.316;8.558;2023-05-15T01:55:46;3.50;;;3.30;;
44456;SDS011;30159;49.316;8.558;2023-05-15T01:58:13;3.07;;;2.87;;
44456;SDS011;30159;49.316;8.558;2023-05-15T02:00:42;3.40;;;3.10;;
44456;SDS011;30159;49.316;8.558;2023-05-15T02:03:10;3.53;;;3.33;;
44456;SDS011;30159;49.316;8.558;2023-05-15T02:05:37;3.47;;;3.17;;
44456;SDS011;30159;49.316;8.558;2023-05-15T02:08:04;4.17;;;3.70;;
44456;SDS011;30159;49.316;8.558;2023-05-15T02:10:32;3.17;;;2.97;;
44456;SDS011;30159;49.316;8.558;2023-05-15T02:12:59;3.70;;;3.47;;
44456;SDS011;30159;49.316;8.558;2023-05-15T02:15:26;4.40;;;4.00;;
44456;SDS011;30159;49.316;8.558;2023-05-15T02:17:55;3.60;;;3.30;;
44456;SDS011;30159;49.316;8.558;2023-05-15T02:20:22;4.37;;;3.93;;
44456;SDS011;30159;49.316;8.558;2023-05-15T02:22:48;4.10;;;3.80;;
44456;SDS011;30159;49.316;8.558;2023-05-15T02:25:15;3.53;;;3.23;;
44456;SDS011;30159;49.316;8.558;2023-05-15T02:27:43;3.90;;;3.60;;
44456;SDS011;30159;49.316;8.558;2023-05-15T02:30:17;3.30;;;3.10;;
44456;SDS011;30159;49.316;8.558;2023-05-15T02:32:53;4.40;;;4.10;;
44456;SDS011;30159;49.316;8.558;2023-05-15T02:35:31;3.40;;;3.10;;
44456;SDS011;30159;49.316;8.558;2023-05-15T02:38:03;3.60;;;3.40;;
44456;SDS011;30159;49.316;8.558;2023-05-15T02:40:33;3.50;;;3.20;;
44456;SDS011;30159;49.316;8.558;2023-05-15T02:43:02;4.67;;;3.33;;
44456;SDS011;30159;49.316;8.558;2023-05-15T02:45:30;4.93;;;3.50;;
44456;SDS011;30159;49.316;8.558;2023-05-15T02:47:57;3.17;;;2.80;;
44456;SDS011;30159;49.316;8.558;2023-05-15T02:50:26;2.03;;;1.93;;
44456;SDS011;30159;49.316;8.558;2023-05-15T02:53:00;2.87;;;2.30;;
44456;SDS011;30159;49.316;8.558;2023-05-15T02:55:27;2.90;;;2.70;;
44456;SDS011;30159;49.316;8.558;2023-05-15T02:57:53;4.73;;;3.40;;
44456;SDS011;30159;49.316;8.558;2023-05-15T03:00:20;8.20;;;5.37;;
44456;SDS011;30159;49.316;8.558;2023-05-15T03:02:47;7.90;;;5.73;;
44456;SDS011;30159;49.316;8.558;2023-05-15T03:05:13;5.03;;;4.30;;
44456;SDS011;30159;49.316;8.558;2023-05-15T03:07:41;7.03;;;5.50;;
44456;SDS011;30159;49.316;8.558;2023-05-15T03:10:08;7.70;;;6.70;;
44456;SDS011;30159;49.316;8.558;2023-05-15T03:12:35;7.90;;;5.37;;
44456;SDS011;30159;49.316;8.558;2023-05-15T03:15:02;7.40;;;5.50;;
44456;SDS011;30159;49.316;8.558;2023-05-15T03:17:28;6.60;;;5.00;;
44456;SDS011;30159;49.316;8.558;2023-05-15T03:19:55;6.10;;;5.03;;
44456;SDS011;30159;49.316;8.558;2023-05-15T03:22:21;4.00;;;3.60;;
44456;SDS011;30159;49.316;8.558;2023-05-15T03:24:50;3.60;;;3.33;;
44456;SDS011;30159;49.316;8.558;2023-05-15T03:27:16;3.67;;;3.27;;
44456;SDS011;30159;49.316;8.558;2023-05-15T03:29:43;3.40;;;3.20;;
44456;SDS011;30159;49.316;8.558;2023-05-15T03:32:10;4.10;;;3.70;;
44456;SDS011;30159;49.316;8.558;2023-05-15T03:34:36;4.30;;;4.00;;
44456;SDS011;30159;49.316;8.558;2023-05-15T03:37:03;3.83;;;3.53;;
44456;SDS011;30159;49.316;8.558;2023-05-15T03:39:30;8.07;;;4.27;;
44456;SDS011;30159;49.316;8.558;2023-05-15T03:41:58;3.47;;;3.10;;
44456;SDS011;30159;49.316;8.558;2023-05-15T03:44:25;5.03;;;3.90;;
44456;SDS011;30159;49.316;8.558;2023-05-15T03:46:51;4.20;;;3.63;;
44456;SDS011;30159;49.316;8.558;2023-05-15T03:49:18;4.80;;;3.90;;
44456;SDS011;30159;49.316;8.558;2023-05-15T03:51:44;5.03;;;3.43;;
44456;SDS011;30159;49.316;8.558;2023-05-15T03:54:11;4.40;;;4.10;;
44456;SDS011;30159;49.316;8.558;2023-05-15T03:56:37;4.03;;;3.73;;
44456;SDS011;30159;49.316;8.558;2023-05-15T03:59:05;3.47;;;3.27;;
44456;SDS011;30159;49.316;8.558;2023-05-15T04:01:32;4.20;;;3.80;;
44456;SDS011;30159;49.316;8.558;2023-05-15T04:03:58;4.10;;;3.80;;
44456;SDS011;30159;49.316;8.558;2023-05-15T04:06:25;3.50;;;3.30;;
44456;SDS011;30159;49.316;8.558;2023-05-15T04:08:51;4.40;;;4.00;;
44456;SDS011;30159;49.316;8.558;2023-05-15T04:11:18;4.60;;;4.30;;
44456;SDS011;30159;49.316;8.558;2023-05-15T04:13:45;3.97;;;3.67;;
44456;SDS011;30159;49.316;8.558;2023-05-15T04:16:13;4.00;;;3.70;;
44456;SDS011;30159;49.316;8.558;2023-05-15T04:18:40;4.87;;;4.57;;
44456;SDS011;30159;49.316;8.558;2023-05-15T04:21:06;5.10;;;4.20;;
44456;SDS011;30159;49.316;8.558;2023-05-15T04:23:33;5.13;;;4.80;;
44456;SDS011;30159;49.316;8.558;2023-05-15T04:25:59;4.80;;;4.50;;
44456;SDS011;30159;49.316;8.558;2023-05-15T04:28:26;4.80;;;4.13;;
44456;SDS011;30159;49.316;8.558;2023-05-15T04:30:53;4.57;;;4.17;;
44456;SDS011;30159;49.316;8.558;2023-05-15T04:33:20;4.60;;;4.20;;
44456;SDS011;30159;49.316;8.558;2023-05-15T04:35:47;4.13;;;3.73;;
44456;SDS011;30159;49.316;8.558;2023-05-15T04:38:14;4.87;;;4.57;;
44456;SDS011;30159;49.316;8.558;2023-05-15T04:40:40;4.40;;;3.93;;
44456;SDS011;30159;49.316;8.558;2023-05-15T04:43:06;5.27;;;4.77;;
44456;SDS011;30159;49.316;8.558;2023-05-15T04:45:33;4.30;;;4.00;;
44456;SDS011;30159;49.316;8.558;2023-05-15T04:48:00;5.07;;;4.60;;
44456;SDS011;30159;49.316;8.558;2023-05-15T04:50:30;5.27;;;4.87;;
44456;SDS011;30159;49.316;8.558;2023-05-15T04:52:56;4.10;;;3.90;;
44456;SDS011;30159;49.316;8.558;2023-05-15T04:55:23;4.53;;;4.20;;
44456;SDS011;30159;49.316;8.558;2023-05-15T04:57:49;4.53;;;4.23;;
44456;SDS011;30159;49.316;8.558;2023-05-15T05:00:16;4.67;;;4.27;;
44456;SDS011;30159;49.316;8.558;2023-05-15T05:02:46;4.57;;;4.17;;
44456;SDS011;30159;49.316;8.558;2023-05-15T05:05:12;4.40;;;4.10;;
44456;SDS011;30159;49.316;8.558;2023-05-15T05:07:40;4.80;;;4.50;;
44456;SDS011;30159;49.316;8.558;2023-05-15T05:10:10;4.27;;;3.97;;
44456;SDS011;30159;49.316;8.558;2023-05-15T05:12:36;4.07;;;3.83;;
44456;SDS011;30159;49.316;8.558;2023-05-15T05:15:03;4.57;;;3.93;;
44456;SDS011;30159;49.316;8.558;2023-05-15T05:17:31;4.33;;;3.93;;
44456;SDS011;30159;49.316;8.558;2023-05-15T05:19:57;4.23;;;3.83;;
44456;SDS011;30159;49.316;8.558;2023-05-15T05:22:24;4.33;;;3.80;;
44456;SDS011;30159;49.316;8.558;2023-05-15T05:24:52;3.60;;;3.40;;
44456;SDS011;30159;49.316;8.558;2023-05-15T05:27:18;4.13;;;3.70;;
44456;SDS011;30159;49.316;8.558;2023-05-15T05:29:45;3.90;;;3.60;;
44456;SDS011;30159;49.316;8.558;2023-05-15T05:32:11;3.30;;;3.10;;
44456;SDS011;30159;49.316;8.558;2023-05-15T05:34:38;3.67;;;3.47;;
44456;SDS011;30159;49.316;8.558;2023-05-15T05:37:05;3.67;;;3.43;;
44456;SDS011;30159;49.316;8.558;2023-05-15T05:39:31;3.70;;;3.50;;
44456;SDS011;30159;49.316;8.558;2023-05-15T05:41:59;3.17;;;2.97;;
44456;SDS011;30159;49.316;8.558;2023-05-15T05:44:26;4.53;;;4.23;;
44456;SDS011;30159;49.316;8.558;2023-05-15T05:46:52;4.70;;;4.50;;
44456;SDS011;30159;49.316;8.558;2023-05-15T05:49:19;4.70;;;4.40;;
44456;SDS011;30159;49.316;8.558;2023-05-15T05:51:45;4.50;;;4.30;;
44456;SDS011;30159;49.316;8.558;2023-05-15T05:54:12;4.60;;;4.40;;
44456;SDS011;30159;49.316;8.558;2023-05-15T05:56:40;5.00;;;4.77;;
44456;SDS011;30159;49.316;8.558;2023-05-15T05:59:08;4.80;;;4.47;;
44456;SDS011;30159;49.316;8.558;2023-05-15T06:01:35;4.30;;;4.10;;
44456;SDS011;30159;49.316;8.558;2023-05-15T06:04:02;3.60;;;3.40;;
44456;SDS011;30159;49.316;8.558;2023-05-15T06:06:28;4.27;;;4.07;;
44456;SDS011;30159;49.316;8.558;2023-05-15T06:08:55;4.63;;;4.43;;
44456;SDS011;30159;49.316;8.558;2023-05-15T06:11:22;4.50;;;4.20;;
44456;SDS011;30159;49.316;8.558;2023-05-15T06:13:48;5.20;;;4.93;;
44456;SDS011;30159;49.316;8.558;2023-05-15T06:16:17;3.90;;;3.70;;
44456;SDS011;30159;49.316;8.558;2023-05-15T06:18:43;4.40;;;4.20;;
44456;SDS011;30159;49.316;8.558;2023-05-15T06:21:10;4.90;;;4.40;;
44456;SDS011;30159;49.316;8.558;2023-05-15T06:23:36;4.30;;;4.07;;
44456;SDS011;30159;49.316;8.558;2023-05-15T06:26:03;3.83;;;3.63;;
44456;SDS011;30159;49.316;8.558;2023-05-15T06:28:30;4.40;;;4.20;;
44456;SDS011;30159;49.316;8.558;2023-05-15T06:30:56;4.40;;;4.10;;
44456;SDS011;30159;49.316;8.558;2023-05-15T06:33:24;4.63;;;4.20;;
44456;SDS011;30159;49.316;8.558;2023-05-15T06:35:51;4.57;;;4.27;;
44456;SDS011;30159;49.316;8.558;2023-05-15T06:38:18;5.70;;;4.77;;
44456;SDS011;30159;49.316;8.558;2023-05-15T06:40:45;4.07;;;3.87;;
44456;SDS011;30159;49.316;8.558;2023-05-15T06:43:11;4.77;;;4.30;;
44456;SDS011;30159;49.316;8.558;2023-05-15T06:45:38;3.90;;;3.70;;
44456;SDS011;30159;49.316;8.558;2023-05-15T06:48:04;4.00;;;3.80;;
44456;SDS011;30159;49.316;8.558;2023-05-15T06:50:32;3.93;;;3.63;;
44456;SDS011;30159;49.316;8.558;2023-05-15T06:52:59;4.10;;;3.90;;
44456;SDS011;30159;49.316;8.558;2023-05-15T06:55:26;3.80;;;3.53;;
44456;SDS011;30159;49.316;8.558;2023-05-15T06:57:52;3.53;;;3.23;;
44456;SDS011;30159;49.316;8.558;2023-05-15T07:00:19;3.77;;;3.57;;
44456;SDS011;30159;49.316;8.558;2023-05-15T07:02:46;3.73;;;3.53;;
44456;SDS011;30159;49.316;8.558;2023-05-15T07:05:12;3.70;;;3.50;;
44456;SDS011;30159;49.316;8.558;2023-05-15T07:07:40;3.23;;;3.03;;
44456;SDS011;30159;49.316;8.558;2023-05-15T07:10:07;3.10;;;2.90;;
44456;SDS011;30159;49.316;8.558;2023-05-15T07:12:34;3.10;;;2.90;;
44456;SDS011;30159;49.316;8.558;2023-05-15T07:15:01;3.10;;;2.90;;
44456;SDS011;30159;49.316;8.558;2023-05-15T07:17:27;3.50;;;3.30;;
44456;SDS011;30159;49.316;8.558;2023-05-15T07:19:54;3.30;;;3.20;;
44456;SDS011;30159;49.316;8.558;2023-05-15T07:22:20;3.50;;;3.30;;
44456;SDS011;30159;49.316;8.558;2023-05-15T07:24:48;3.30;;;3.10;;
44456;SDS011;30159;49.316;8.558;2023-05-15T07:27:15;3.20;;;3.00;;
44456;SDS011;30159;49.316;8.558;2023-05-15T07:29:41;3.80;;;3.60;;
44456;SDS011;30159;49.316;8.558;2023-05-15T07:32:08;3.57;;;3.37;;
44456;SDS011;30159;49.316;8.558;2023-05-15T07:34:34;3.27;;;3.13;;
44456;SDS011;30159;49.316;8.558;2023-05-15T07:37:01;2.90;;;2.70;;
44456;SDS011;30159;49.316;8.558;2023-05-15T07:39:27;3.23;;;3.07;;
44456;SDS011;30159;49.316;8.558;2023-05-15T07:41:55;3.20;;;3.10;;
44456;SDS011;30159;49.316;8.558;2023-05-15T07:44:22;2.73;;;2.53;;
44456;SDS011;30159;49.316;8.558;2023-05-15T07:46:48;2.70;;;2.50;;
44456;SDS011;30159;49.316;8.558;2023-05-15T07:49:15;3.00;;;2.80;;
44456;SDS011;30159;49.316;8.558;2023-05-15T07:51:42;2.80;;;2.60;;
44456;SDS011;30159;49.316;8.558;2023-05-15T07:54:08;2.50;;;2.40;;
44456;SDS011;30159;49.316;8.558;2023-05-15T07:56:35;2.47;;;2.27;;
44456;SDS011;30159;49.316;8.558;2023-05-15T07:59:03;2.57;;;2.40;;
44456;SDS011;30159;49.316;8.558;2023-05-15T08:01:29;2.97;;;2.77;;
44456;SDS011;30159;49.316;8.558;2023-05-15T08:03:56;5.10;;;2.30;;
44456;SDS011;30159;49.316;8.558;2023-05-15T08:06:23;2.63;;;2.43;;
44456;SDS011;30159;49.316;8.558;2023-05-15T08:08:49;2.57;;;2.30;;
44456;SDS011;30159;49.316;8.558;2023-05-15T08:11:16;2.83;;;2.37;;
44456;SDS011;30159;49.316;8.558;2023-05-15T08:13:43;2.23;;;2.13;;
44456;SDS011;30159;49.316;8.558;2023-05-15T08:16:11;2.70;;;2.60;;
44456;SDS011;30159;49.316;8.558;2023-05-15T08:18:37;2.97;;;2.87;;
44456;SDS011;30159;49.316;8.558;2023-05-15T08:21:04;2.20;;;2.10;;
44456;SDS011;30159;49.316;8.558;2023-05-15T08:23:31;2.77;;;2.67;;
44456;SDS011;30159;49.316;8.558;2023-05-15T08:25:58;3.67;;;2.57;;
44456;SDS011;30159;49.316;8.558;2023-05-15T08:28:24;5.60;;;2.90;;
44456;SDS011;30159;49.316;8.558;2023-05-15T08:30:51;3.00;;;2.80;;
44456;SDS011;30159;49.316;8.558;2023-05-15T08:33:19;2.37;;;2.27;;
44456;SDS011;30159;49.316;8.558;2023-05-15T08:35:45;2.60;;;2.40;;
44456;SDS011;30159;49.316;8.558;2023-05-15T08:38:12;3.00;;;2.80;;
44456;SDS011;30159;49.316;8.558;2023-05-15T08:40:39;2.97;;;2.77;;
44456;SDS011;30159;49.316;8.558;2023-05-15T08:43:07;2.77;;;2.67;;
44456;SDS011;30159;49.316;8.558;2023-05-15T08:45:39;2.97;;;2.77;;
44456;SDS011;30159;49.316;8.558;2023-05-15T08:48:06;3.60;;;3.40;;
44456;SDS011;30159;49.316;8.558;2023-05-15T08:50:38;4.53;;;4.00;;
44456;SDS011;30159;49.316;8.558;2023-05-15T08:53:05;3.27;;;3.07;;
44456;SDS011;30159;49.316;8.558;2023-05-15T08:55:33;3.27;;;3.07;;
44456;SDS011;30159;49.316;8.558;2023-05-15T08:57:59;3.63;;;3.43;;
44456;SDS011;30159;49.316;8.558;2023-05-15T09:00:27;3.83;;;3.53;;
44456;SDS011;30159;49.316;8.558;2023-05-15T09:02:54;2.83;;;2.63;;
44456;SDS011;30159;49.316;8.558;2023-05-15T09:05:20;3.67;;;3.40;;
44456;SDS011;30159;49.316;8.558;2023-05-15T09:07:48;3.77;;;3.57;;
44456;SDS011;30159;49.316;8.558;2023-05-15T09:10:16;4.40;;;4.20;;
44456;SDS011;30159;49.316;8.558;2023-05-15T09:12:44;4.23;;;4.03;;
44456;SDS011;30159;49.316;8.558;2023-05-15T09:15:11;4.27;;;4.07;;
44456;SDS011;30159;49.316;8.558;2023-05-15T09:17:41;5.30;;;2.77;;
44456;SDS011;30159;49.316;8.558;2023-05-15T09:20:23;3.73;;;3.43;;
44456;SDS011;30159;49.316;8.558;2023-05-15T09:22:52;4.07;;;3.77;;
44456;SDS011;30159;49.316;8.558;2023-05-15T09:25:30;3.93;;;3.73;;
44456;SDS011;30159;49.316;8.558;2023-05-15T09:27:58;3.93;;;3.73;;
44456;SDS011;30159;49.316;8.558;2023-05-15T09:30:25;4.40;;;4.10;;
44456;SDS011;30159;49.316;8.558;2023-05-15T09:32:52;3.97;;;3.70;;
44456;SDS011;30159;49.316;8.558;2023-05-15T09:35:29;4.10;;;3.83;;
44456;SDS011;30159;49.316;8.558;2023-05-15T09:37:58;4.43;;;4.07;;
44456;SDS011;30159;49.316;8.558;2023-05-15T09:40:27;4.50;;;4.20;;
44456;SDS011;30159;49.316;8.558;2023-05-15T09:42:54;3.43;;;3.23;;
44456;SDS011;30159;49.316;8.558;2023-05-15T09:45:21;4.03;;;3.83;;
44456;SDS011;30159;49.316;8.558;2023-05-15T09:47:49;4.70;;;3.40;;
44456;SDS011;30159;49.316;8.558;2023-05-15T09:50:19;3.53;;;3.33;;
44456;SDS011;30159;49.316;8.558;2023-05-15T09:52:46;3.47;;;3.27;;
44456;SDS011;30159;49.316;8.558;2023-05-15T09:55:15;3.27;;;3.07;;
44456;SDS011;30159;49.316;8.558;2023-05-15T09:57:43;4.43;;;4.03;;
44456;SDS011;30159;49.316;8.558;2023-05-15T10:00:10;4.23;;;3.93;;
44456;SDS011;30159;49.316;8.558;2023-05-15T10:02:39;3.67;;;3.47;;
44456;SDS011;30159;49.316;8.558;2023-05-15T10:05:06;3.60;;;3.40;;
44456;SDS011;30159;49.316;8.558;2023-05-15T10:07:33;3.60;;;3.40;;
44456;SDS011;30159;49.316;8.558;2023-05-15T10:10:01;3.57;;;3.30;;
44456;SDS011;30159;49.316;8.558;2023-05-15T10:12:30;4.07;;;3.87;;
44456;SDS011;30159;49.316;8.558;2023-05-15T10:14:57;3.87;;;3.67;;
44456;SDS011;30159;49.316;8.558;2023-05-15T10:17:24;3.70;;;3.37;;
44456;SDS011;30159;49.316;8.558;2023-05-15T10:19:53;4.33;;;4.13;;
44456;SDS011;30159;49.316;8.558;2023-05-15T10:22:22;3.23;;;3.03;;
44456;SDS011;30159;49.316;8.558;2023-05-15T10:25:02;4.60;;;4.23;;
44456;SDS011;30159;49.316;8.558;2023-05-15T10:27:36;3.93;;;3.73;;
44456;SDS011;30159;49.316;8.558;2023-05-15T10:30:06;3.90;;;3.70;;
44456;SDS011;30159;49.316;8.558;2023-05-15T10:32:35;4.27;;;3.80;;
44456;SDS011;30159;49.316;8.558;2023-05-15T10:35:01;4.03;;;3.70;;
44456;SDS011;30159;49.316;8.558;2023-05-15T10:37:28;4.07;;;3.87;;
44456;SDS011;30159;49.316;8.558;2023-05-15T10:39:56;3.80;;;3.50;;
44456;SDS011;30159;49.316;8.558;2023-05-15T10:42:23;4.17;;;3.97;;
44456;SDS011;30159;49.316;8.558;2023-05-15T10:44:53;4.07;;;3.87;;
44456;SDS011;30159;49.316;8.558;2023-05-15T10:47:24;4.00;;;3.80;;
44456;SDS011;30159;49.316;8.558;2023-05-15T10:49:51;4.53;;;4.13;;
44456;SDS011;30159;49.316;8.558;2023-05-15T10:52:17;4.40;;;4.10;;
44456;SDS011;30159;49.316;8.558;2023-05-15T10:54:44;4.80;;;4.40;;
44456;SDS011;30159;49.316;8.558;2023-05-15T10:57:10;4.03;;;3.73;;
44456;SDS011;30159;49.316;8.558;2023-05-15T10:59:37;4.50;;;4.20;;
44456;SDS011;30159;49.316;8.558;2023-05-15T11:02:19;6.10;;;4.73;;
44456;SDS011;30159;49.316;8.558;2023-05-15T11:04:47;5.13;;;4.83;;
44456;SDS011;30159;49.316;8.558;2023-05-15T11:07:19;5.10;;;4.80;;
44456;SDS011;30159;49.316;8.558;2023-05-15T11:09:48;8.47;;;7.50;;
44456;SDS011;30159;49.316;8.558;2023-05-15T11:12:15;5.90;;;5.40;;
44456;SDS011;30159;49.316;8.558;2023-05-15T11:14:42;6.30;;;5.90;;
44456;SDS011;30159;49.316;8.558;2023-05-15T11:17:09;5.70;;;5.40;;
44456;SDS011;30159;49.316;8.558;2023-05-15T11:22:30;4.90;;;4.50;;
44456;SDS011;30159;49.316;8.558;2023-05-15T11:24:58;5.50;;;5.10;;
44456;SDS011;30159;49.316;8.558;2023-05-15T11:27:27;5.17;;;4.80;;
44456;SDS011;30159;49.316;8.558;2023-05-15T11:32:50;6.10;;;5.50;;
44456;SDS011;30159;49.316;8.558;2023-05-15T11:35:23;5.97;;;5.37;;
44456;SDS011;30159;49.316;8.558;2023-05-15T11:37:52;7.83;;;7.10;;
44456;SDS011;30159;49.316;8.558;2023-05-15T11:40:23;7.50;;;6.80;;
44456;SDS011;30159;49.316;8.558;2023-05-15T11:43:01;7.33;;;6.60;;
44456;SDS011;30159;49.316;8.558;2023-05-15T11:45:29;6.83;;;6.10;;
44456;SDS011;30159;49.316;8.558;2023-05-15T11:47:59;8.20;;;6.37;;
44456;SDS011;30159;49.316;8.558;2023-05-15T11:50:28;5.80;;;5.40;;
44456;SDS011;30159;49.316;8.558;2023-05-15T11:52:56;7.23;;;6.53;;
44456;SDS011;30159;49.316;8.558;2023-05-15T11:55:23;5.50;;;5.10;;
44456;SDS011;30159;49.316;8.558;2023-05-15T11:57:50;6.33;;;5.93;;
44456;SDS011;30159;49.316;8.558;2023-05-15T12:00:17;8.90;;;6.77;;
44456;SDS011;30159;49.316;8.558;2023-05-15T12:02:44;6.80;;;6.23;;
44456;SDS011;30159;49.316;8.558;2023-05-15T12:05:10;5.63;;;4.03;;
44456;SDS011;30159;49.316;8.558;2023-05-15T12:07:40;4.03;;;3.83;;
44456;SDS011;30159;49.316;8.558;2023-05-15T12:10:08;4.50;;;4.20;;
44456;SDS011;30159;49.316;8.558;2023-05-15T12:12:37;6.20;;;5.87;;
44456;SDS011;30159;49.316;8.558;2023-05-15T12:15:06;5.60;;;5.10;;
44456;SDS011;30159;49.316;8.558;2023-05-15T12:17:37;6.40;;;5.90;;
44456;SDS011;30159;49.316;8.558;2023-05-15T12:20:04;5.37;;;4.90;;
44456;SDS011;30159;49.316;8.558;2023-05-15T12:22:35;6.53;;;6.03;;
44456;SDS011;30159;49.316;8.558;2023-05-15T12:25:04;6.57;;;6.07;;
44456;SDS011;30159;49.316;8.558;2023-05-15T12:27:35;6.60;;;5.97;;
44456;SDS011;30159;49.316;8.558;2023-05-15T12:30:03;8.93;;;7.57;;
44456;SDS011;30159;49.316;8.558;2023-05-15T12:32:32;6.87;;;6.37;;
44456;SDS011;30159;49.316;8.558;2023-05-15T12:35:00;5.60;;;5.13;;
44456;SDS011;30159;49.316;8.558;2023-05-15T12:37:29;4.90;;;4.60;;
44456;SDS011;30159;49.316;8.558;2023-05-15T12:39:58;4.87;;;4.57;;
44456;SDS011;30159;49.316;8.558;2023-05-15T12:42:27;5.63;;;4.60;;
44456;SDS011;30159;49.316;8.558;2023-05-15T12:44:54;4.77;;;4.40;;
44456;SDS011;30159;49.316;8.558;2023-05-15T12:47:21;4.63;;;4.33;;
44456;SDS011;30159;49.316;8.558;2023-05-15T12:49:49;5.20;;;4.80;;
44456;SDS011;30159;49.316;8.558;2023-05-15T12:52:15;4.40;;;4.10;;
44456;SDS011;30159;49.316;8.558;2023-05-15T12:54:42;4.80;;;4.50;;
44456;SDS011;30159;49.316;8.558;2023-05-15T12:57:10;4.40;;;4.10;;
44456;SDS011;30159;49.316;8.558;2023-05-15T12:59:38;3.83;;;3.63;;
44456;SDS011;30159;49.316;8.558;2023-05-15T13:02:07;4.33;;;4.03;;
44456;SDS011;30159;49.316;8.558;2023-05-15T13:04:35;5.10;;;4.70;;
44456;SDS011;30159;49.316;8.558;2023-05-15T13:07:01;4.80;;;4.50;;
44456;SDS011;30159;49.316;8.558;2023-05-15T13:09:28;5.43;;;4.97;;
44456;SDS011;30159;49.316;8.558;2023-05-15T13:11:57;4.40;;;4.00;;
44456;SDS011;30159;49.316;8.558;2023-05-15T13:14:23;4.23;;;3.93;;
44456;SDS011;30159;49.316;8.558;2023-05-15T13:16:57;4.70;;;4.40;;
44456;SDS011;30159;49.316;8.558;2023-05-15T13:19:25;6.33;;;4.70;;
44456;SDS011;30159;49.316;8.558;2023-05-15T13:21:52;5.33;;;4.93;;
44456;SDS011;30159;49.316;8.558;2023-05-15T13:24:18;6.20;;;5.80;;
44456;SDS011;30159;49.316;8.558;2023-05-15T13:26:45;5.50;;;5.10;;
44456;SDS011;30159;49.316;8.558;2023-05-15T13:29:11;5.33;;;4.93;;
44456;SDS011;30159;49.316;8.558;2023-05-15T13:31:38;5.90;;;5.40;;
44456;SDS011;30159;49.316;8.558;2023-05-15T13:34:06;5.43;;;5.03;;
44456;SDS011;30159;49.316;8.558;2023-05-15T13:36:33;6.90;;;4.90;;
44456;SDS011;30159;49.316;8.558;2023-05-15T13:38:59;6.07;;;5.60;;
44456;SDS011;30159;49.316;8.558;2023-05-15T13:41:26;5.80;;;5.50;;
44456;SDS011;30159;49.316;8.558;2023-05-15T13:43:52;6.17;;;5.67;;
44456;SDS011;30159;49.316;8.558;2023-05-15T13:46:19;7.10;;;6.00;;
44456;SDS011;30159;49.316;8.558;2023-05-15T13:48:46;10.27;;;6.30;;
44456;SDS011;30159;49.316;8.558;2023-05-15T13:51:14;6.70;;;6.10;;
44456;SDS011;30159;49.316;8.558;2023-05-15T13:53:40;7.07;;;6.47;;
44456;SDS011;30159;49.316;8.558;2023-05-15T13:56:07;6.53;;;5.87;;
44456;SDS011;30159;49.316;8.558;2023-05-15T13:58:33;7.37;;;5.50;;
44456;SDS011;30159;49.316;8.558;2023-05-15T14:01:01;5.77;;;5.37;;
44456;SDS011;30159;49.316;8.558;2023-05-15T14:03:30;5.40;;;5.00;;
44456;SDS011;30159;49.316;8.558;2023-05-15T14:05:56;6.60;;;6.10;;
44456;SDS011;30159;49.316;8.558;2023-05-15T14:08:24;6.13;;;5.70;;
44456;SDS011;30159;49.316;8.558;2023-05-15T14:10:51;6.70;;;6.17;;
44456;SDS011;30159;49.316;8.558;2023-05-15T14:13:17;9.00;;;5.90;;
44456;SDS011;30159;49.316;8.558;2023-05-15T14:15:44;6.47;;;5.97;;
44456;SDS011;30159;49.316;8.558;2023-05-15T14:18:10;5.27;;;4.87;;
44456;SDS011;30159;49.316;8.558;2023-05-15T14:20:37;5.30;;;5.00;;
44456;SDS011;30159;49.316;8.558;2023-05-15T14:23:03;6.07;;;5.67;;
44456;SDS011;30159;49.316;8.558;2023-05-15T14:25:31;5.77;;;5.27;;
44456;SDS011;30159;49.316;8.558;2023-05-15T14:27:58;6.40;;;5.80;;
44456;SDS011;30159;49.316;8.558;2023-05-15T14:30:24;5.20;;;4.90;;
44456;SDS011;30159;49.316;8.558;2023-05-15T14:32:51;6.13;;;5.83;;
44456;SDS011;30159;49.316;8.558;2023-05-15T14:35:17;5.57;;;4.80;;
44456;SDS011;30159;49.316;8.558;2023-05-15T14:37:44;11.83;;;5.83;;
44456;SDS011;30159;49.316;8.558;2023-05-15T14:40:10;6.33;;;5.93;;
44456;SDS011;30159;49.316;8.558;2023-05-15T14:42:39;6.00;;;5.63;;
44456;SDS011;30159;49.316;8.558;2023-05-15T14:45:05;7.13;;;6.53;;
44456;SDS011;30159;49.316;8.558;2023-05-15T14:47:33;7.20;;;6.07;;
44456;SDS011;30159;49.316;8.558;2023-05-15T14:49:59;6.40;;;5.90;;
44456;SDS011;30159;49.316;8.558;2023-05-15T14:52:26;6.03;;;5.67;;
44456;SDS011;30159;49.316;8.558;2023-05-15T14:54:52;6.67;;;6.10;;
44456;SDS011;30159;49.316;8.558;2023-05-15T14:57:19;6.40;;;5.90;;
44456;SDS011;30159;49.316;8.558;2023-05-15T14:59:47;6.53;;;6.03;;